Terminal Aerodrome Forecast
Issued by NWS

Home | Current Version | Previous Version | Graphics & Text | Print | Product List | Glossary On
Versions: 1 2 3 4 5 6 7 8 9 10 11 12 13 14 15
431
FTUS45 KGGW 052338
TAFSDY
TAF
KSDY 052338Z 0600/0624 32025G35KT 1SM -SN BLSN SCT012 OVC025
      TEMPO 0600/0604 1/2SM SN BLSN BKN015 OVC025
     FM060400 31019G28KT 2SM -SN BLSN OVC015
     FM060700 30018G27KT 5SM BR VCSH OVC015
     FM060900 30015KT P6SM BKN020=

USA.gov is the U.S. government's official web portal to all federal, state and local government web resources and services.